Schedule Details

Flight Number: ASXC46
Departure: Brussels Airport (EBBR) at 20:00
Arrival: Gdansk im. Lecha Walesy (EPGD) at 22:00

Weather Information
EBBR 272250Z 01005KT 350V110 CAVOK 18/16 Q1017 NOSIG
EPGD 272300Z 06004KT 020V110 CAVOK 16/15 Q1025

Schedule Frequency

Route Map